M I D A S
Marine Information and Data Acquisition System
Tripno 651 of the Zeeleeuw from 2004-02-18 07:12:45 to 2004-02-18 11:52:08
Back to CruiseResearch ActivitiesStationsMapUnderway DataData graphs

EquipmentUnitsComments
TimeDGPSUTC
LatitudeDGPSDM.mWGS84
LongitudeDGPSDM.mWGS84
SpeedMeteo Stationm/sRelative wind speed
DirectionMeteo StationdegRelative wind direction
TemperatureMeteo Stationdeg CelciusAir temperature
PressureMeteo StationPaAtmospheric pressure
HumidityMeteo Station%Relative humidity
Missing or incorrect values are displayed as -999
Metereological data collected by the RV Zeeleeuw from 2004-02-18 07:12:45 to 2004-02-18 11:52:08
Time Latitude Longitude Speed Direction Temperature Pressure Humidity
2004-02-18 07:13 51°13.592 2°56.105 4.1 266 6.6 102820 72
2004-02-18 07:14 51°13.612 2°56.028 8 245 6.6 102830 71
2004-02-18 07:15 51°13.648 2°55.949 6.4 241 6.6 102830 70
2004-02-18 07:16 51°13.673 2°55.865 5.3 241 6.6 102820 69
2004-02-18 07:17 51°13.688 2°55.755 6.3 246 6.6 102820 69
2004-02-18 07:18 51°13.695 2°55.782 4.1 308 6.6 102820 69
2004-02-18 07:19 51°13.712 2°55.77 6.7 19 6.6 102820 69
2004-02-18 07:20 51°13.785 2°55.678 8.9 5 6.6 102800 69
2004-02-18 07:21 51°13.888 2°55.583 8.5 26 6.6 102800 69
2004-02-18 07:22 51°14.013 2°55.494 11.1 32 6.6 102790 70
2004-02-18 07:23 51°14.155 2°55.393 10.8 23 6.6 102780 70
2004-02-18 07:24 51°14.286 2°55.224 12.6 37 6.6 102780 71
2004-02-18 07:25 51°14.388 2°54.953 10.7 65 6.6 102770 71
2004-02-18 07:26 51°14.389 2°54.645 9.6 89 6.7 102760 70
2004-02-18 07:27 51°14.34 2°54.422 6.5 119 6.7 102820 71
2004-02-18 07:28 51°14.282 2°54.239 6.7 111 6.7 102820 71
2004-02-18 07:29 51°14.241 2°54.078 6.9 113 6.7 102820 71
2004-02-18 07:30 51°14.22 2°53.963 9.6 105 6.7 102820 72
2004-02-18 07:31 51°14.205 2°53.883 8.8 110 6.7 102820 71
2004-02-18 07:32 51°14.167 2°53.744 5.9 101 6.7 102810 71
2004-02-18 07:33 51°14.086 2°53.441 8.2 90 6.7 102770 72
2004-02-18 07:34 51°13.97 2°53.101 4.8 80 6.7 102770 72
2004-02-18 07:35 51°13.852 2°52.756 8.6 89 6.7 102770 72
2004-02-18 07:36 51°13.734 2°52.408 8.5 88 6.7 102770 72
2004-02-18 07:37 51°13.616 2°52.052 7 71 6.7 102770 73
2004-02-18 07:38 51°13.494 2°51.706 9.5 87 6.7 102770 72
2004-02-18 07:39 51°13.375 2°51.358 7.2 95 6.6 102780 72
2004-02-18 07:40 51°13.263 2°51.016 7.8 88 6.7 102780 72
2004-02-18 07:41 51°13.148 2°50.667 6.3 86 6.7 102780 72
2004-02-18 07:42 51°13.031 2°50.318 5.7 91 6.6 102780 72
2004-02-18 07:43 51°12.912 2°49.972 8.3 87 6.6 102780 71
2004-02-18 07:44 51°12.797 2°49.618 7.7 96 6.6 102780 72
2004-02-18 07:45 51°12.68 2°49.268 6.8 88 6.7 102780 72
2004-02-18 07:46 51°12.555 2°48.93 4.9 76 6.7 102780 72
2004-02-18 07:47 51°12.431 2°48.591 6.3 96 6.7 102780 71
2004-02-18 07:48 51°12.312 2°48.261 5.9 91 6.7 102780 72
2004-02-18 07:49 51°12.192 2°47.92 7.7 82 6.7 102780 71
2004-02-18 07:50 51°12.072 2°47.582 7.6 72 6.7 102780 71
2004-02-18 07:51 51°11.953 2°47.242 6.7 79 6.7 102790 71
2004-02-18 07:52 51°11.832 2°46.906 6.5 83 6.7 102790 71
2004-02-18 07:53 51°11.71 2°46.561 6.4 79 6.7 102790 71
2004-02-18 07:54 51°11.591 2°46.229 7.2 83 6.7 102790 72
2004-02-18 07:55 51°11.486 2°45.867 6 81 6.7 102790 71
2004-02-18 07:56 51°11.391 2°45.509 8.5 87 6.7 102790 72
2004-02-18 07:57 51°11.298 2°45.151 5.4 71 6.7 102790 72
2004-02-18 07:58 51°11.21 2°44.791 6.1 74 6.7 102800 72
2004-02-18 07:59 51°11.125 2°44.432 5.8 75 6.7 102780 72
2004-02-18 08:00 51°11.048 2°44.061 6 69 6.7 102780 73
2004-02-18 08:01 51°10.977 2°43.701 6.7 78 6.7 102780 73
2004-02-18 08:02 51°10.906 2°43.334 7.2 72 6.7 102790 73
2004-02-18 08:03 51°10.837 2°42.969 7.8 73 6.7 102780 73
2004-02-18 08:04 51°10.774 2°42.601 7.2 69 6.7 102770 73
2004-02-18 08:05 51°10.708 2°42.232 7.7 70 6.7 102780 73
2004-02-18 08:06 51°10.642 2°41.855 6.3 75 6.7 102780 73
2004-02-18 08:07 51°10.581 2°41.488 8 78 6.7 102770 73
2004-02-18 08:08 51°10.518 2°41.125 9.7 84 6.8 102780 73
2004-02-18 08:09 51°10.455 2°40.76 8.2 83 6.8 102770 72
2004-02-18 08:10 51°10.392 2°40.401 7.8 76 6.7 102780 72
2004-02-18 08:11 51°10.326 2°40.029 7.1 74 6.8 102770 73
2004-02-18 08:12 51°10.261 2°39.662 8 70 6.8 102790 73
2004-02-18 08:13 51°10.2 2°39.296 7.7 63 6.8 102780 72
2004-02-18 08:14 51°10.138 2°38.94 9.2 83 6.8 102780 73
2004-02-18 08:15 51°10.074 2°38.572 6.4 69 6.8 102780 73
2004-02-18 08:16 51°10.011 2°38.209 9.1 84 6.8 102770 73
2004-02-18 08:17 51°9.951 2°37.849 7.2 68 6.8 102790 73
2004-02-18 08:18 51°9.895 2°37.477 7.6 72 6.8 102780 73
2004-02-18 08:19 51°9.851 2°37.115 6.8 72 6.8 102780 73
2004-02-18 08:20 51°9.8 2°36.793 6.4 117 6.8 102820 73
2004-02-18 08:21 51°9.755 2°36.698 6.6 144 6.9 102820 73
2004-02-18 08:22 51°9.73 2°36.674 8.2 140 6.9 102820 73
2004-02-18 08:23 51°9.717 2°36.675 7.2 142 6.9 102820 73
2004-02-18 08:24 51°9.702 2°36.658 6.5 128 6.9 102820 74
2004-02-18 08:25 51°9.687 2°36.636 8.1 123 6.9 102820 74
2004-02-18 08:26 51°9.672 2°36.612 8.4 126 6.9 102820 74
2004-02-18 08:27 51°9.659 2°36.593 7.9 124 6.9 102820 74
2004-02-18 08:28 51°9.647 2°36.577 7.7 119 6.9 102830 74
2004-02-18 08:29 51°9.635 2°36.561 8.1 116 6.9 102810 74
2004-02-18 08:30 51°9.624 2°36.546 7.8 113 6.9 102830 74
2004-02-18 08:31 51°9.612 2°36.533 6.9 109 6.9 102820 74
2004-02-18 08:32 51°9.602 2°36.522 7.2 106 6.9 102820 75
2004-02-18 08:33 51°9.591 2°36.514 9.5 115 6.9 102820 76
2004-02-18 08:34 51°9.579 2°36.506 7.8 115 6.9 102820 75
2004-02-18 08:35 51°9.57 2°36.5 7.9 112 7 102820 76
2004-02-18 08:36 51°9.559 2°36.494 8.3 110 7 102810 76
2004-02-18 08:37 51°9.547 2°36.488 9.8 113 6.9 102820 75
2004-02-18 08:38 51°9.537 2°36.481 8.7 114 6.9 102820 75
2004-02-18 08:39 51°9.527 2°36.475 10.1 110 7 102810 75
2004-02-18 08:40 51°9.516 2°36.471 8.9 111 6.9 102820 75
2004-02-18 08:41 51°9.505 2°36.469 8 116 7 102810 76
2004-02-18 08:42 51°9.493 2°36.467 10.2 125 6.9 102820 75
2004-02-18 08:43 51°9.481 2°36.467 9.3 114 6.9 102810 75
2004-02-18 08:44 51°9.469 2°36.466 8.3 119 7 102810 75
2004-02-18 08:45 51°9.458 2°36.464 10.3 114 7 102810 75
2004-02-18 08:46 51°9.446 2°36.46 10 110 6.9 102810 75
2004-02-18 08:47 51°9.436 2°36.456 9.4 104 7 102810 76
2004-02-18 08:48 51°9.474 2°36.335 11.2 67 7 102780 75
2004-02-18 08:49 51°9.572 2°36.045 13.1 59 6.9 102800 76
2004-02-18 08:50 51°9.677 2°35.742 15 58 7 102800 76
2004-02-18 08:51 51°9.849 2°35.519 14.4 31 7 102740 76
2004-02-18 08:52 51°10.046 2°35.383 16.3 27 7 102740 76
2004-02-18 08:53 51°10.256 2°35.318 16.3 13 7 102740 75
2004-02-18 08:54 51°10.462 2°35.458 16.1 359 7 102770 75
2004-02-18 08:55 51°10.653 2°35.673 15.8 357 7.1 102760 75
2004-02-18 08:56 51°10.839 2°35.882 18.4 356 7 102760 75
2004-02-18 08:57 51°11.022 2°36.092 16.4 355 7 102750 75
2004-02-18 08:58 51°11.209 2°36.306 15.4   7 102760 76
2004-02-18 08:59 51°11.398 2°36.524 16.5 355 7 102760 76
2004-02-18 09:00 51°11.577 2°36.736 15.7 356 7 102750 77
2004-02-18 09:01 51°11.757 2°36.947 19 355 7 102760 77
2004-02-18 09:02 51°11.942 2°37.162 16.9 353 7 102760 77
2004-02-18 09:03 51°12.13 2°37.376 15.9 1 7 102750 77
2004-02-18 09:04 51°12.321 2°37.566 16.6 360 7 102750 77
2004-02-18 09:05 51°12.519 2°37.764 18.1 1 7 102750 77
2004-02-18 09:06 51°12.708 2°37.957 17.2 356 7 102750 77
2004-02-18 09:07 51°12.905 2°38.157 17.6 356 7 102760 76
2004-02-18 09:08 51°13.094 2°38.354 16.3 359 7.1 102750 76
2004-02-18 09:09 51°13.298 2°38.521 16 5 7.1 102760 76
2004-02-18 09:10 51°13.517 2°38.629 15.4 6 7.1 102760 76
2004-02-18 09:11 51°13.732 2°38.699 16.5 8 7.1 102760 76
2004-02-18 09:12 51°13.955 2°38.756 15.7 15 7.1 102760 76
2004-02-18 09:13 51°14.135 2°38.637 12.9 54 7.1 102740 76
2004-02-18 09:14 51°14.098 2°38.317 8.2 94 7.1 102740 76
2004-02-18 09:15 51°14.011 2°37.978 8.4 79 7.1 102770 77
2004-02-18 09:16 51°13.93 2°37.651 7.8 85 7.1 102760 77
2004-02-18 09:17 51°13.843 2°37.317 8.3 81 7 102760 77
2004-02-18 09:18 51°13.764 2°36.996 8.9 81 7.1 102770 78
2004-02-18 09:19 51°13.688 2°36.671 10.1 89 7 102760 78
2004-02-18 09:20 51°13.609 2°36.342 9.8 88 7.1 102760 78
2004-02-18 09:21 51°13.53 2°36.021 7.7 75 7.1 102750 78
2004-02-18 09:22 51°13.454 2°35.696 10 82 7.1 102760 78
2004-02-18 09:23 51°13.379 2°35.383 5.6 76 7 102750 77
2004-02-18 09:24 51°13.302 2°35.065 8.1 80 7 102750 77
2004-02-18 09:25 51°13.225 2°34.749 8.4 83 7.1 102760 77
2004-02-18 09:26 51°13.145 2°34.429 7.7 84 7.1 102760 77
2004-02-18 09:27 51°13.057 2°34.11 7.2 80 7.1 102760 77
2004-02-18 09:28 51°12.969 2°33.797 9.4 96 7.1 102760 77
2004-02-18 09:29 51°12.88 2°33.48 9.4 90 7 102760 76
2004-02-18 09:30 51°12.785 2°33.169 7.2 91 7.1 102770 77
2004-02-18 09:31 51°12.688 2°32.868 7.8 90 7.1 102760 77
2004-02-18 09:32 51°12.591 2°32.571 8.8 87 7.1 102760 78
2004-02-18 09:33 51°12.494 2°32.27 9.1 94 7.1 102760 78
2004-02-18 09:34 51°12.396 2°31.966 6.9 95 7.1 102750 77
2004-02-18 09:35 51°12.295 2°31.647 7.9 84 7.1 102760 77
2004-02-18 09:36 51°12.198 2°31.333 8.1 86 7.1 102740 78
2004-02-18 09:37 51°12.098 2°31.022 8.5 79 7.1 102750 77
2004-02-18 09:38 51°11.999 2°30.706 8.8 95 7.1 102750 77
2004-02-18 09:39 51°11.904 2°30.408 7.9 97 7.1 102750 77
2004-02-18 09:40 51°11.81 2°30.101 6.5 82 7.1 102760 77
2004-02-18 09:41 51°11.721 2°29.802 10.4 98 7.2 102760 77
2004-02-18 09:42 51°11.664 2°29.567 8 111 7.2 102790 77
2004-02-18 09:43 51°11.631 2°29.44 8.1 117 7.2 102790 77
2004-02-18 09:44 51°11.57 2°29.254 7.2 115 7.2 102800 77
2004-02-18 09:45 51°11.496 2°29.018 8.6 100 7.2 102800 77
2004-02-18 09:46 51°11.425 2°28.714 9.2 88 7.2 102760 77
2004-02-18 09:47 51°11.355 2°28.413 8.1 83 7.2 102800 78
2004-02-18 09:48 51°11.291 2°28.111 7.8 79 7.2 102750 78
2004-02-18 09:49 51°11.238 2°27.789 8.7 79 7.2 102750 79
2004-02-18 09:50 51°11.185 2°27.474 8.2 82 7.1 102750 79
2004-02-18 09:51 51°11.134 2°27.154 9.5 81 7.2 102740 79
2004-02-18 09:52 51°11.098 2°26.83 10 79 7.2 102740 79
2004-02-18 09:53 51°11.108 2°26.507 11.3 71 7.2 102740 80
2004-02-18 09:54 51°11.181 2°26.204 14.2 56 7.1 102730 79
2004-02-18 09:55 51°11.304 2°25.93 16.6 54 7.1 102720 79
2004-02-18 09:56 51°11.459 2°25.717 18.2 25 7.2 102720 79
2004-02-18 09:57 51°11.682 2°25.692 16.4 10 7.2 102750 79
2004-02-18 09:58 51°11.912 2°25.739 17.2 6 7.3 102750 80
2004-02-18 09:59 51°12.137 2°25.876 16.5 4 7.3 102740 80
2004-02-18 10:00 51°12.349 2°26.031 17.2 1 7.3 102750 80
2004-02-18 10:01 51°12.559 2°26.207 17.9 355 7.2 102750 79
2004-02-18 10:02 51°12.765 2°26.397 16.6 355 7.3 102740 79
2004-02-18 10:03 51°12.968 2°26.589 17.1 355 7.2 102730 78
2004-02-18 10:04 51°13.169 2°26.788 16.7 354 7.3 102730 79
2004-02-18 10:05 51°13.364 2°26.981 16.4 356 7.3 102730 79
2004-02-18 10:06 51°13.559 2°27.194 16 351 7.3 102740 79
2004-02-18 10:07 51°13.755 2°27.411 17 354 7.3 102740 79
2004-02-18 10:08 51°13.953 2°27.631 16.5 349 7.2 102730 79
2004-02-18 10:09 51°14.141 2°27.844 17.2 352 7.3 102730 79
2004-02-18 10:10 51°14.329 2°28.071 15.7 353 7.2 102730 79
2004-02-18 10:11 51°14.518 2°28.301 16.4 349 7.2 102730 79
2004-02-18 10:12 51°14.705 2°28.529 17.3 348 7.2 102740 79
2004-02-18 10:13 51°14.896 2°28.764 15.3 347 7.3 102740 79
2004-02-18 10:14 51°15.086 2°28.997 15.8 348 7.3 102730 79
2004-02-18 10:15 51°15.275 2°29.23 18.6 347 7.3 102730 79
2004-02-18 10:16 51°15.466 2°29.454 16.7 347 7.3 102730 79
2004-02-18 10:17 51°15.662 2°29.677 16.4 350 7.2 102720 79
2004-02-18 10:18 51°15.855 2°29.9 16 346 7.3 102790 80
2004-02-18 10:19 51°16.047 2°30.123 16.1 342 7.2 102720 79
2004-02-18 10:20 51°16.23 2°30.363 16.8 347 7.2 102740 79
2004-02-18 10:21 51°16.412 2°30.604 17.2 346 7.2 102730 79
2004-02-18 10:22 51°16.588 2°30.84 16.8 342 7.3 102710 79
2004-02-18 10:23 51°16.77 2°31.083 17.6 338 7.3 102710 79
2004-02-18 10:24 51°16.946 2°31.344 16.3 340 7.3 102700 80
2004-02-18 10:25 51°17.115 2°31.599 17.4 339 7.3 102690 80
2004-02-18 10:26 51°17.293 2°31.858 16.5 341 7.4 102700 80
2004-02-18 10:27 51°17.47 2°32.118 17 340 7.3 102690 80
2004-02-18 10:28 51°17.64 2°32.37 15.9 337 7.4 102710 80
2004-02-18 10:29 51°17.821 2°32.633 17.5 343 7.4 102710 80
2004-02-18 10:30 51°17.997 2°32.887 16.5 341 7.4 102710 81
2004-02-18 10:31 51°18.175 2°33.148 14.3 340 7.4 102700 81
2004-02-18 10:32 51°18.348 2°33.403 19.1 338 7.4 102710 80
2004-02-18 10:33 51°18.522 2°33.656 14.4 345 7.4 102710 81
2004-02-18 10:34 51°18.695 2°33.911 17 341 7.4 102710 81
2004-02-18 10:35 51°18.868 2°34.166 15.3 344 7.3 102700 81
2004-02-18 10:36 51°19.049 2°34.426 17.6 347 7.3 102700 81
2004-02-18 10:37 51°19.226 2°34.683 17 346 7.3 102710 81
2004-02-18 10:38 51°19.404 2°34.943 18.6 341 7.3 102700 81
2004-02-18 10:39 51°19.539 2°35.257 16.3 332 7.2 102690 80
2004-02-18 10:40 51°19.66 2°35.596 15.5 328 7.3 102690 81
2004-02-18 10:41 51°19.736 2°35.971 14.2 317 7.3 102680 81
2004-02-18 10:42 51°19.784 2°36.368 16.2 318 7.3 102700 81
2004-02-18 10:43 51°19.822 2°36.753 15.5 44 7.3 102690 81
2004-02-18 10:44 51°19.865 2°37.149 14.6 317 7.3 102690 81
2004-02-18 10:45 51°19.907 2°37.54 14 317 7.3 102690 80
2004-02-18 10:46 51°19.946 2°37.919 14.5 316 7.2 102700 80
2004-02-18 10:47 51°19.983 2°38.315 16 315 7.3 102700 80
2004-02-18 10:48 51°20.003 2°38.708 13.7 317 7.3 102700 79
2004-02-18 10:49 51°20.022 2°39.095 14.7 318 7.3 102690 79
2004-02-18 10:50 51°20.042 2°39.488 14.6 314 7.3 102690 79
2004-02-18 10:51 51°20.065 2°39.877 13.7 317 7.4 102690 79
2004-02-18 10:52 51°20.089 2°40.257 16.2 227 7.4 102670 79
2004-02-18 10:53 51°20.119 2°40.649 13.9 314 7.4 102690 79
2004-02-18 10:54 51°20.146 2°41.031 14.7 228 7.4 102690 79
2004-02-18 10:55 51°20.17 2°41.425 15.6 313 7.4 102690 80
2004-02-18 10:56 51°20.193 2°41.824 15.8 226 7.4 102680 80
2004-02-18 10:57 51°20.216 2°42.212 13.6 321 7.3 102680 80
2004-02-18 10:58 51°20.241 2°42.61 14.8 316 7.4 102690 80
2004-02-18 10:59 51°20.26 2°42.998 13.5 42 7.4 102670 80
2004-02-18 11:00 51°20.265 2°43.402 14 315 7.4 102680 80
2004-02-18 11:01 51°20.273 2°43.797 12.6 42 7.3 102690 80
2004-02-18 11:02 51°20.28 2°44.187 14 306 7.3 102690 80
2004-02-18 11:03 51°20.285 2°44.592 14.7 311 7.3 102680 80
2004-02-18 11:04 51°20.291 2°44.988 14.3 314 7.3 102670 80
2004-02-18 11:05 51°20.294 2°45.372 14.8 305 7.3 102680 81
2004-02-18 11:06 51°20.297 2°45.764 12.7 302 7.3 102670 80
2004-02-18 11:07 51°20.205 2°46.127 10.7 292 7.3 102690 81
2004-02-18 11:08 51°20.074 2°46.455 10.4 280 7.3 102710 81
2004-02-18 11:09 51°19.934 2°46.77 9.1 297 7.3 102700 81
2004-02-18 11:10 51°19.801 2°47.088 8.9 285 7.3 102740 81
2004-02-18 11:11 51°19.67 2°47.397 8.4 284 7.4 102750 81
2004-02-18 11:12 51°19.537 2°47.699 9.5 285 7.4 102750 80
2004-02-18 11:13 51°19.401 2°48.005 8.5 288 7.4 102750 81
2004-02-18 11:14 51°19.264 2°48.309 8 293 7.5 102740 80
2004-02-18 11:15 51°19.129 2°48.618 8.5 276 7.5 102750 80
2004-02-18 11:16 51°18.99 2°48.931 7.6 282 7.5 102750 80
2004-02-18 11:17 51°18.851 2°49.245 7.3 305 7.5 102760 80
2004-02-18 11:18 51°18.713 2°49.545 8.9 286 7.6 102760 80
2004-02-18 11:19 51°18.574 2°49.843 9.5 291 7.6 102750 80
2004-02-18 11:20 51°18.437 2°50.151 10 279 7.5 102750 79
2004-02-18 11:21 51°18.304 2°50.466 9.3 281 7.5 102740 79
2004-02-18 11:22 51°18.173 2°50.767 7.6 280 7.5 102740 79
2004-02-18 11:23 51°18.037 2°51.081 7.8 286 7.6 102740 79
2004-02-18 11:24 51°17.898 2°51.392 10.3 291 7.6 102740 79
2004-02-18 11:25 51°17.764 2°51.683 6.6 285 7.6 102750 79
2004-02-18 11:26 51°17.628 2°51.985 7.7 276 7.7 102750 80
2004-02-18 11:27 51°17.476 2°52.255 5.3 296 7.7 102750 79
2004-02-18 11:28 51°17.289 2°52.466 5.6 278 7.7 102750 80
2004-02-18 11:29 51°17.106 2°52.659 3 257 7.6 102740 80
2004-02-18 11:30 51°16.918 2°52.858 5.3 266 7.6 102740 79
2004-02-18 11:31 51°16.707 2°52.995 3.4 258 7.5 102750 80
2004-02-18 11:32 51°16.492 2°53.087 2.1 232 7.4 102750 80
2004-02-18 11:33 51°16.275 2°53.152 2.2 284 7.4 102740 80
2004-02-18 11:34 51°16.06 2°53.226 1.1 256 7.4 102740 80
2004-02-18 11:35 51°15.836 2°53.298 3.1 276 7.4 102740 81
2004-02-18 11:36 51°15.63 2°53.374 2.6 245 7.4 102740 81
2004-02-18 11:37 51°15.418 2°53.479 3.3 265 7.3 102740 81
2004-02-18 11:38 51°15.204 2°53.61 3.7 271 7.3 102730 81
2004-02-18 11:39 51°14.993 2°53.766 3.9 275 7.4 102730 81
2004-02-18 11:40 51°14.804 2°53.903 2.5 247 7.4 102730 81
2004-02-18 11:41 51°14.694 2°53.989 5.6 233 7.3 102730 81
2004-02-18 11:42 51°14.631 2°54.032 7 230 7.1 102740 80
2004-02-18 11:43 51°14.589 2°54.073 5.8 247 6.9 102730 79
2004-02-18 11:44 51°14.564 2°54.131 5.6 257 6.8 102730 79
2004-02-18 11:45 51°14.549 2°54.19 9.7 268 6.7 102720 80
2004-02-18 11:46 51°14.526 2°54.329 9.7 307 6.8 102730 80
2004-02-18 11:47 51°14.462 2°54.629 8.8 324 6.9 102670 80
2004-02-18 11:48 51°14.38 2°54.984 10.1 317 6.9 102670 79
2004-02-18 11:49 51°14.268 2°55.264 6.5 309 7 102700 79
2004-02-18 11:50 51°14.128 2°55.402 4 291 7 102720 79
2004-02-18 11:51 51°13.978 2°55.512 3.5 328 7.1 102720 79